Time;durP1;ratioP1;P1;durP2;ratioP2;P2;SDS_P1;SDS_P2;PMS_P1;PMS_P2;Temp;Humidity;BMP_temperature;BMP_pressure;BME280_temperature;BME280_humidity;BME280_pressure;Samples;Min_cycle;Max_cycle;Signal;HPM_P1;HPM_P2
2024/01/06 00:01:46;;;;;;;12.35;7.40;;;9.50;79.20;;;;;;5062975;28;20035;-74
2024/01/06 00:04:12;;;;;;;14.60;8.50;;;9.50;79.10;;;;;;5091303;28;20024;-75
2024/01/06 00:06:38;;;;;;;16.13;8.63;;;9.50;79.00;;;;;;5076213;28;20039;-74
2024/01/06 00:09:04;;;;;;;15.90;9.77;;;9.50;79.00;;;;;;5093313;28;20023;-75
2024/01/06 00:11:29;;;;;;;14.80;8.68;;;9.50;79.00;;;;;;5092777;28;20028;-74
2024/01/06 00:13:55;;;;;;;16.38;9.02;;;9.40;78.90;;;;;;5092146;28;20431;-74
2024/01/06 00:16:21;;;;;;;15.85;9.23;;;9.50;79.50;;;;;;5093416;28;20086;-74
2024/01/06 00:18:47;;;;;;;14.10;8.52;;;9.40;78.70;;;;;;5092403;28;20036;-73
2024/01/06 00:21:13;;;;;;;14.40;8.25;;;9.40;78.60;;;;;;5091617;28;20032;-75
2024/01/06 00:23:40;;;;;;;12.80;7.72;;;9.40;78.60;;;;;;5093429;28;20027;-74
2024/01/06 00:26:08;;;;;;;14.90;9.20;;;9.40;78.60;;;;;;5093030;28;20081;-74
2024/01/06 00:28:34;;;;;;;15.15;8.55;;;9.30;78.60;;;;;;5093705;28;20024;-74
2024/01/06 00:30:59;;;;;;;13.45;7.93;;;9.30;78.60;;;;;;5093223;28;20528;-74
2024/01/06 00:33:25;;;;;;;13.73;7.85;;;9.30;78.40;;;;;;5092561;28;20085;-74
2024/01/06 00:35:51;;;;;;;13.93;8.35;;;9.40;78.40;;;;;;5092513;28;20048;-74
2024/01/06 00:38:17;;;;;;;13.85;7.95;;;9.30;78.30;;;;;;5094209;28;20065;-74
2024/01/06 00:40:42;;;;;;;12.57;7.13;;;9.30;78.20;;;;;;5093332;28;20036;-74
2024/01/06 00:43:08;;;;;;;13.43;7.95;;;9.30;78.10;;;;;;5094538;28;20059;-73
2024/01/06 00:45:34;;;;;;;12.73;7.18;;;9.30;78.00;;;;;;5104856;28;20455;-73
2024/01/06 00:48:00;;;;;;;13.25;7.72;;;9.30;77.90;;;;;;5096994;28;20035;-73
2024/01/06 00:50:25;;;;;;;12.80;7.38;;;9.20;77.80;;;;;;5095907;28;20416;-73
2024/01/06 00:52:52;;;;;;;14.00;8.05;;;9.20;77.80;;;;;;5096045;28;20068;-73
2024/01/06 00:55:22;;;;;;;13.02;7.43;;;9.20;77.70;;;;;;5105704;28;20024;-73
2024/01/06 00:57:48;;;;;;;13.98;7.88;;;9.20;77.60;;;;;;5103793;28;20106;-73
2024/01/06 01:00:15;;;;;;;13.45;7.57;;;9.10;77.60;;;;;;5095210;28;20024;-73
2024/01/06 01:02:40;;;;;;;14.50;8.52;;;9.10;77.60;;;;;;5081845;28;20105;-73
2024/01/06 01:05:09;;;;;;;13.70;7.85;;;9.10;77.60;;;;;;5095312;28;20059;-73
2024/01/06 01:07:35;;;;;;;13.90;8.02;;;9.10;77.60;;;;;;5095423;28;20121;-73
2024/01/06 01:10:01;;;;;;;13.95;8.18;;;9.10;77.60;;;;;;5095506;28;20082;-73
2024/01/06 01:12:26;;;;;;;13.85;7.97;;;9.00;77.60;;;;;;5078519;28;20032;-73
2024/01/06 01:14:54;;;;;;;13.80;7.80;;;9.00;77.60;;;;;;5098579;28;20055;-73
2024/01/06 01:17:20;;;;;;;13.98;8.07;;;9.00;77.50;;;;;;5096095;28;20031;-73
2024/01/06 01:19:46;;;;;;;14.38;8.10;;;9.00;77.60;;;;;;5096542;28;20046;-74
2024/01/06 01:22:12;;;;;;;13.32;7.28;;;9.00;77.60;;;;;;5094661;28;20035;-74
2024/01/06 01:24:37;;;;;;;12.52;7.75;;;9.00;77.60;;;;;;5094672;28;20334;-74
2024/01/06 01:27:04;;;;;;;13.88;7.70;;;9.10;77.60;;;;;;5103002;28;20119;-74
2024/01/06 01:29:29;;;;;;;15.80;8.40;;;9.00;77.50;;;;;;5095498;28;20415;-74
2024/01/06 01:31:55;;;;;;;14.10;8.05;;;9.00;77.50;;;;;;5094975;28;20036;-74
2024/01/06 01:34:21;;;;;;;14.02;8.52;;;9.00;77.50;;;;;;5095241;28;20024;-74
2024/01/06 01:36:47;;;;;;;13.95;8.02;;;9.00;77.50;;;;;;5103801;28;20039;-74
2024/01/06 01:39:12;;;;;;;14.65;9.13;;;9.00;77.50;;;;;;5094987;28;20051;-74
2024/01/06 01:41:39;;;;;;;13.75;8.00;;;9.10;77.60;;;;;;5095205;28;20103;-74
2024/01/06 01:44:05;;;;;;;13.48;7.95;;;9.00;77.50;;;;;;5096646;28;20028;-74
2024/01/06 01:46:31;;;;;;;12.20;7.50;;;9.00;77.50;;;;;;5096845;28;20456;-74
2024/01/06 01:48:59;;;;;;;13.48;7.82;;;9.00;77.40;;;;;;5103367;28;20028;-74
2024/01/06 01:51:35;;;;;;;14.20;7.50;;;9.00;77.50;;;;;;5094831;28;20031;-74
2024/01/06 01:54:05;;;;;;;15.05;8.00;;;9.00;77.50;;;;;;5082383;28;20412;-74
2024/01/06 01:56:35;;;;;;;14.27;8.30;;;9.00;77.50;;;;;;5089174;28;20161;-74
2024/01/06 01:59:12;;;;;;;13.43;8.43;;;9.00;77.50;;;;;;5078297;28;20356;-74
2024/01/06 02:01:42;;;;;;;13.15;7.75;;;9.00;77.40;;;;;;5087534;28;20345;-74
2024/01/06 02:04:08;;;;;;;14.75;8.43;;;8.90;77.50;;;;;;5095407;28;20061;-74
2024/01/06 02:06:34;;;;;;;14.52;8.40;;;9.00;78.10;;;;;;5101570;28;20024;-74
2024/01/06 02:09:00;;;;;;;13.00;7.90;;;8.90;77.50;;;;;;5094229;28;20031;-74
2024/01/06 02:11:26;;;;;;;14.48;8.40;;;8.90;77.50;;;;;;5102064;28;20363;-74
2024/01/06 02:13:52;;;;;;;13.63;8.00;;;9.00;77.60;;;;;;5094763;28;20344;-74
2024/01/06 02:16:18;;;;;;;13.75;8.27;;;8.90;77.60;;;;;;5095119;28;20475;-74
2024/01/06 02:18:43;;;;;;;15.68;8.35;;;8.90;77.50;;;;;;5094244;28;20062;-74
2024/01/06 02:21:10;;;;;;;14.13;8.30;;;8.90;77.50;;;;;;5102477;28;20145;-74
2024/01/06 02:23:36;;;;;;;15.07;9.02;;;8.90;77.50;;;;;;5095109;28;20016;-74
2024/01/06 02:26:03;;;;;;;16.58;8.70;;;8.90;77.50;;;;;;5094713;28;20373;-74
2024/01/06 02:28:28;;;;;;;16.75;9.48;;;8.90;77.50;;;;;;5094776;28;20057;-74
2024/01/06 02:30:54;;;;;;;16.23;9.65;;;8.90;77.50;;;;;;5097714;28;20035;-74
2024/01/06 02:33:20;;;;;;;15.65;9.43;;;8.90;77.50;;;;;;5087073;28;20031;-74
2024/01/06 02:35:46;;;;;;;17.38;10.75;;;8.80;77.50;;;;;;5099934;28;20063;-74
2024/01/06 02:38:12;;;;;;;17.92;10.20;;;8.90;77.50;;;;;;5081979;28;20641;-74
2024/01/06 02:40:38;;;;;;;18.75;10.35;;;8.90;77.50;;;;;;5100409;28;20102;-74
2024/01/06 02:43:04;;;;;;;16.80;9.63;;;8.80;77.50;;;;;;5092990;28;20078;-74
2024/01/06 02:45:30;;;;;;;18.25;10.45;;;8.80;77.50;;;;;;5092483;28;20024;-74
2024/01/06 02:47:56;;;;;;;18.00;10.50;;;8.80;77.50;;;;;;5094853;28;20115;-74
2024/01/06 02:50:22;;;;;;;16.65;9.82;;;8.80;77.50;;;;;;5091077;28;20103;-74
2024/01/06 02:52:47;;;;;;;16.63;10.15;;;8.70;77.50;;;;;;5094370;28;20024;-74
2024/01/06 02:55:14;;;;;;;17.65;10.43;;;8.70;77.50;;;;;;5094033;28;20047;-74
2024/01/06 02:57:40;;;;;;;17.42;10.80;;;8.70;77.60;;;;;;5088274;28;20107;-73
2024/01/06 03:00:07;;;;;;;16.10;9.70;;;8.70;77.50;;;;;;5094187;28;20040;-73
2024/01/06 03:02:35;;;;;;;17.70;10.02;;;8.70;77.40;;;;;;5094454;28;20035;-73
2024/01/06 03:05:02;;;;;;;16.63;9.27;;;8.70;77.40;;;;;;5093626;28;20361;-73
2024/01/06 03:07:27;;;;;;;17.38;10.32;;;8.60;77.30;;;;;;5095417;28;20059;-73
2024/01/06 03:09:53;;;;;;;18.05;10.65;;;8.60;77.30;;;;;;5094249;28;20020;-73
2024/01/06 03:12:19;;;;;;;17.90;10.27;;;8.60;77.30;;;;;;5094221;28;20452;-73
2024/01/06 03:14:44;;;;;;;17.85;10.77;;;8.60;77.20;;;;;;5094237;28;20457;-73
2024/01/06 03:17:10;;;;;;;17.02;10.35;;;8.60;77.20;;;;;;5092935;28;20100;-73
2024/01/06 03:19:36;;;;;;;17.95;10.70;;;8.60;77.20;;;;;;5094161;28;20429;-73
2024/01/06 03:22:02;;;;;;;16.88;10.23;;;8.60;77.20;;;;;;5093913;28;20436;-73
2024/01/06 03:24:28;;;;;;;18.25;10.38;;;8.60;77.20;;;;;;5094414;28;20102;-73
2024/01/06 03:26:54;;;;;;;19.52;11.55;;;8.60;77.20;;;;;;5094288;28;20031;-73
2024/01/06 03:29:20;;;;;;;17.63;10.30;;;8.60;77.30;;;;;;5094294;28;20034;-73
2024/01/06 03:31:46;;;;;;;18.40;11.02;;;8.50;77.30;;;;;;5094906;28;20463;-73
2024/01/06 03:34:11;;;;;;;17.95;10.63;;;8.50;77.30;;;;;;5093419;28;20111;-74
2024/01/06 03:36:38;;;;;;;17.35;10.60;;;8.50;77.30;;;;;;5103913;28;20078;-74
2024/01/06 03:39:04;;;;;;;19.45;11.48;;;8.50;77.30;;;;;;5094393;28;20051;-73
2024/01/06 03:41:30;;;;;;;17.40;10.52;;;8.50;77.50;;;;;;5098424;28;20021;-74
2024/01/06 03:43:56;;;;;;;17.70;10.38;;;8.50;77.50;;;;;;5090566;28;20462;-74
2024/01/06 03:46:22;;;;;;;18.27;10.38;;;8.50;77.40;;;;;;5099929;28;20032;-74
2024/01/06 03:48:48;;;;;;;18.70;10.68;;;8.50;77.40;;;;;;5099513;28;20017;-73
2024/01/06 03:51:14;;;;;;;17.80;10.50;;;8.50;77.40;;;;;;5092629;28;20421;-73
2024/01/06 03:53:42;;;;;;;18.88;10.45;;;8.50;77.40;;;;;;5093163;28;20533;-74
2024/01/06 03:56:08;;;;;;;17.90;10.65;;;8.50;77.40;;;;;;5092144;28;20028;-74
2024/01/06 03:58:34;;;;;;;18.52;10.77;;;8.50;77.40;;;;;;5098604;28;20061;-74
2024/01/06 04:01:00;;;;;;;19.58;10.10;;;8.50;77.30;;;;;;5108402;28;20101;-74
2024/01/06 04:03:26;;;;;;;16.33;9.88;;;8.50;77.30;;;;;;5093190;28;20024;-74
2024/01/06 04:05:52;;;;;;;18.63;11.07;;;8.50;77.20;;;;;;5092276;28;20039;-74
2024/01/06 04:08:18;;;;;;;19.58;10.60;;;8.50;77.10;;;;;;5107848;28;20107;-74
2024/01/06 04:10:44;;;;;;;18.73;10.93;;;8.50;77.10;;;;;;5099713;28;20407;-74
2024/01/06 04:13:11;;;;;;;18.92;11.25;;;8.50;77.20;;;;;;5093617;28;20020;-74
2024/01/06 04:15:37;;;;;;;20.00;12.48;;;8.40;77.20;;;;;;5093585;28;20024;-74
2024/01/06 04:18:04;;;;;;;18.52;11.82;;;8.40;77.30;;;;;;5094776;28;20043;-73
2024/01/06 04:20:31;;;;;;;17.98;11.35;;;8.40;77.20;;;;;;5097125;28;20096;-73
2024/01/06 04:22:56;;;;;;;21.17;12.60;;;8.40;77.20;;;;;;5084048;28;20484;-73
2024/01/06 04:25:22;;;;;;;19.92;12.25;;;8.40;77.20;;;;;;5097309;28;20028;-73
2024/01/06 04:27:48;;;;;;;19.80;11.80;;;8.40;77.30;;;;;;5096204;28;20024;-73
2024/01/06 04:30:15;;;;;;;21.23;12.55;;;8.40;77.30;;;;;;5097031;28;20026;-74
2024/01/06 04:32:41;;;;;;;18.80;11.80;;;8.40;77.40;;;;;;5111748;28;20028;-73
2024/01/06 04:35:07;;;;;;;20.65;12.38;;;8.40;77.40;;;;;;5096991;28;20439;-73
2024/01/06 04:37:33;;;;;;;22.70;13.15;;;8.40;77.30;;;;;;5096728;28;20020;-73
2024/01/06 04:39:59;;;;;;;19.90;12.85;;;8.30;77.30;;;;;;5097330;28;20115;-74
2024/01/06 04:42:25;;;;;;;22.45;13.60;;;8.40;77.40;;;;;;5083935;28;20020;-74
2024/01/06 04:44:51;;;;;;;20.42;13.15;;;8.40;77.30;;;;;;5096024;28;20448;-74
2024/01/06 04:47:17;;;;;;;19.55;12.43;;;8.40;77.30;;;;;;5099669;28;20069;-74
2024/01/06 04:49:44;;;;;;;20.02;12.57;;;8.30;77.20;;;;;;5100364;28;20067;-74
2024/01/06 04:52:10;;;;;;;20.63;12.55;;;8.30;77.10;;;;;;5096631;28;20028;-74
2024/01/06 04:54:35;;;;;;;20.65;13.18;;;8.30;77.20;;;;;;5096228;28;20085;-74
2024/01/06 04:57:01;;;;;;;19.67;12.52;;;8.30;77.20;;;;;;5100551;28;20133;-74
2024/01/06 04:59:27;;;;;;;19.25;10.75;;;8.30;77.30;;;;;;5102786;28;20166;-74
2024/01/06 05:01:54;;;;;;;19.98;11.30;;;8.30;77.30;;;;;;5096809;28;20510;-74
2024/01/06 05:04:20;;;;;;;18.73;10.68;;;8.30;77.20;;;;;;5093884;28;20017;-73
2024/01/06 05:06:46;;;;;;;18.00;9.95;;;8.30;77.10;;;;;;5101935;28;20368;-73
2024/01/06 05:09:11;;;;;;;17.70;10.30;;;8.30;77.00;;;;;;5075411;28;20055;-73
2024/01/06 05:11:37;;;;;;;16.58;9.30;;;8.30;77.00;;;;;;5098160;28;20505;-73
2024/01/06 05:14:03;;;;;;;18.10;10.45;;;8.20;76.80;;;;;;5092616;28;20161;-73
2024/01/06 05:16:29;;;;;;;17.40;10.75;;;8.20;76.80;;;;;;5092547;28;20036;-74
2024/01/06 05:18:54;;;;;;;16.35;10.00;;;8.20;76.90;;;;;;5094175;28;20028;-74
2024/01/06 05:21:20;;;;;;;16.45;9.38;;;8.20;76.90;;;;;;5094716;28;20044;-73
2024/01/06 05:23:46;;;;;;;16.08;10.05;;;8.20;76.90;;;;;;5094532;28;20028;-73
2024/01/06 05:26:13;;;;;;;14.05;9.55;;;8.10;76.80;;;;;;5102839;27;20032;-73
2024/01/06 05:28:40;;;;;;;16.02;9.68;;;8.10;76.80;;;;;;5089734;28;20172;-73
2024/01/06 05:31:06;;;;;;;16.38;9.10;;;8.10;76.90;;;;;;5076182;28;20043;-73
2024/01/06 05:33:31;;;;;;;16.50;9.43;;;8.10;76.90;;;;;;5085018;28;20047;-73
2024/01/06 05:35:57;;;;;;;15.77;9.85;;;8.10;76.90;;;;;;5093679;28;20020;-73
2024/01/06 05:38:23;;;;;;;15.77;9.77;;;8.10;76.80;;;;;;5077315;28;20051;-73
2024/01/06 05:40:49;;;;;;;16.63;9.95;;;8.10;76.80;;;;;;5081873;28;20032;-73
2024/01/06 05:43:14;;;;;;;15.68;9.20;;;8.00;76.80;;;;;;5076325;28;20039;-73
2024/01/06 05:45:41;;;;;;;16.60;8.98;;;8.00;76.80;;;;;;5084913;28;20033;-73
2024/01/06 05:48:11;;;;;;;16.95;9.68;;;8.10;76.80;;;;;;5081683;28;20028;-73
2024/01/06 05:50:40;;;;;;;16.10;9.80;;;8.00;76.60;;;;;;5079903;28;20075;-73
2024/01/06 05:53:07;;;;;;;17.33;10.43;;;8.00;76.70;;;;;;5065038;28;20495;-73
2024/01/06 05:55:33;;;;;;;16.07;9.60;;;8.00;76.60;;;;;;5086797;28;20020;-73
2024/01/06 05:57:59;;;;;;;16.08;9.27;;;7.90;76.50;;;;;;5097684;28;20048;-73
2024/01/06 06:00:25;;;;;;;17.65;9.55;;;7.90;76.60;;;;;;5095982;28;20028;-73
2024/01/06 06:02:51;;;;;;;16.45;9.15;;;7.90;76.60;;;;;;5094793;28;20386;-73
2024/01/06 06:05:16;;;;;;;15.60;9.55;;;7.80;76.50;;;;;;5104036;28;20083;-73
2024/01/06 06:07:43;;;;;;;16.15;8.98;;;7.80;76.50;;;;;;5098894;28;20013;-73
2024/01/06 06:10:10;;;;;;;16.20;9.45;;;7.80;76.60;;;;;;5093266;28;20402;-73
2024/01/06 06:12:37;;;;;;;15.43;10.20;;;7.80;76.50;;;;;;5096445;28;20019;-73
2024/01/06 06:15:04;;;;;;;17.42;9.60;;;7.80;76.50;;;;;;5078632;28;20055;-73
2024/01/06 06:17:31;;;;;;;14.25;8.93;;;7.80;76.40;;;;;;5094728;28;20032;-73
2024/01/06 06:19:57;;;;;;;16.13;9.63;;;7.80;76.40;;;;;;5073380;28;20415;-74
2024/01/06 06:22:25;;;;;;;15.18;8.95;;;7.80;76.30;;;;;;5092143;28;20086;-73
2024/01/06 06:24:51;;;;;;;15.27;9.80;;;7.70;76.10;;;;;;5094816;28;20024;-73
2024/01/06 06:27:17;;;;;;;15.37;9.63;;;7.70;76.20;;;;;;5094677;28;20024;-72
2024/01/06 06:29:43;;;;;;;14.47;8.23;;;7.70;76.20;;;;;;5088022;28;20082;-73
2024/01/06 06:32:09;;;;;;;15.00;8.93;;;7.70;76.20;;;;;;5076894;28;20024;-72
2024/01/06 06:34:34;;;;;;;13.30;8.73;;;7.70;76.10;;;;;;5108029;28;20044;-72
2024/01/06 06:37:00;;;;;;;14.07;8.80;;;7.70;76.10;;;;;;5090017;28;20028;-73
2024/01/06 06:39:27;;;;;;;16.10;9.65;;;7.70;76.10;;;;;;5086265;28;20055;-73
2024/01/06 06:41:52;;;;;;;14.82;9.05;;;7.70;76.10;;;;;;5093128;28;20043;-73
2024/01/06 06:44:18;;;;;;;14.77;8.95;;;7.70;76.10;;;;;;5110103;28;20024;-73
2024/01/06 06:46:44;;;;;;;14.63;9.15;;;7.70;76.00;;;;;;5095064;28;20016;-73
2024/01/06 06:49:10;;;;;;;15.82;9.52;;;7.70;76.00;;;;;;5095244;28;20475;-73
2024/01/06 06:51:35;;;;;;;14.65;9.45;;;7.70;75.90;;;;;;5094705;28;20119;-73
2024/01/06 06:54:01;;;;;;;15.03;8.57;;;7.70;75.90;;;;;;5094130;28;20030;-73
2024/01/06 06:56:27;;;;;;;15.13;9.30;;;7.70;75.90;;;;;;5093700;28;20027;-73
2024/01/06 06:58:53;;;;;;;13.27;8.13;;;7.70;76.40;;;;;;5094202;28;20401;-73
2024/01/06 07:01:18;;;;;;;15.63;9.70;;;7.70;75.80;;;;;;5076716;28;20111;-73
2024/01/06 07:03:44;;;;;;;15.90;8.83;;;7.60;75.60;;;;;;5097253;28;20035;-73
2024/01/06 07:06:14;;;;;;;14.30;8.90;;;7.60;75.60;;;;;;5097199;28;20026;-73
2024/01/06 07:08:41;;;;;;;15.13;9.00;;;7.60;75.60;;;;;;5093671;28;20118;-73
2024/01/06 07:11:07;;;;;;;15.00;9.47;;;7.60;75.60;;;;;;5094638;28;20044;-73
2024/01/06 07:13:33;;;;;;;15.07;9.33;;;7.60;75.60;;;;;;5092973;28;20081;-73
2024/01/06 07:15:59;;;;;;;14.67;9.53;;;7.60;75.60;;;;;;5093579;28;20455;-73
2024/01/06 07:18:25;;;;;;;15.33;9.27;;;7.70;75.50;;;;;;5094557;28;20048;-75
2024/01/06 07:20:51;;;;;;;15.55;9.77;;;7.70;75.60;;;;;;5094666;28;20039;-74
2024/01/06 07:23:17;;;;;;;13.68;8.80;;;7.70;75.50;;;;;;5088060;28;20072;-73
2024/01/06 07:25:43;;;;;;;14.50;9.13;;;7.70;75.40;;;;;;5092404;28;20516;-75
2024/01/06 07:28:09;;;;;;;14.97;8.93;;;7.70;75.40;;;;;;5093195;28;20024;-74
2024/01/06 07:30:34;;;;;;;13.10;8.40;;;7.70;75.30;;;;;;5093602;28;20059;-74
2024/01/06 07:33:00;;;;;;;13.90;8.55;;;7.70;75.20;;;;;;5093252;28;20081;-75
2024/01/06 07:35:26;;;;;;;14.60;9.13;;;7.70;75.20;;;;;;5090236;28;20085;-72
2024/01/06 07:37:53;;;;;;;12.87;8.20;;;7.80;75.20;;;;;;5091706;28;20434;-74
2024/01/06 07:40:18;;;;;;;13.80;8.43;;;7.70;75.10;;;;;;5091435;28;20039;-75
2024/01/06 07:42:44;;;;;;;14.50;8.40;;;7.70;75.00;;;;;;5092629;28;20360;-74
2024/01/06 07:45:10;;;;;;;14.23;7.88;;;7.70;75.60;;;;;;5098910;28;20051;-75
2024/01/06 07:47:36;;;;;;;13.63;8.05;;;7.70;74.80;;;;;;5095044;28;20104;-74
2024/01/06 07:50:03;;;;;;;12.97;7.70;;;7.70;74.80;;;;;;5101798;28;20032;-74
2024/01/06 07:52:28;;;;;;;13.80;8.68;;;7.70;74.80;;;;;;5091356;28;20036;-70
2024/01/06 07:54:54;;;;;;;14.33;8.27;;;7.70;74.70;;;;;;5094714;28;20128;-69
2024/01/06 07:57:21;;;;;;;13.40;8.68;;;7.70;74.70;;;;;;5096624;28;20032;-69
2024/01/06 07:59:46;;;;;;;12.97;7.90;;;7.70;74.70;;;;;;5095309;28;20487;-68
2024/01/06 08:02:12;;;;;;;13.97;8.23;;;7.70;74.60;;;;;;5096037;28;20028;-69
2024/01/06 08:04:38;;;;;;;14.73;9.07;;;7.70;74.60;;;;;;5098136;28;20464;-69
2024/01/06 08:07:03;;;;;;;13.67;8.63;;;7.70;74.70;;;;;;5107029;28;20052;-69
2024/01/06 08:09:29;;;;;;;13.60;7.53;;;7.70;74.70;;;;;;5101778;28;20036;-69
2024/01/06 08:11:55;;;;;;;13.80;7.88;;;7.60;74.70;;;;;;5098479;28;20127;-69
2024/01/06 08:14:21;;;;;;;13.40;6.93;;;7.60;74.70;;;;;;5097865;28;20103;-69
2024/01/06 08:16:46;;;;;;;14.47;8.03;;;7.60;74.70;;;;;;5103728;28;20036;-69
2024/01/06 08:19:13;;;;;;;14.77;8.33;;;7.60;74.60;;;;;;5097254;28;20081;-69
2024/01/06 08:21:39;;;;;;;13.90;7.87;;;7.50;74.60;;;;;;5080042;28;20347;-69
2024/01/06 08:24:04;;;;;;;11.87;7.40;;;7.60;74.60;;;;;;5098206;28;20103;-69
2024/01/06 08:26:31;;;;;;;13.53;7.80;;;7.50;74.50;;;;;;5096230;28;20073;-69
2024/01/06 08:28:56;;;;;;;13.68;8.05;;;7.50;74.40;;;;;;5098399;28;20020;-70
2024/01/06 08:31:22;;;;;;;14.13;7.73;;;7.50;74.40;;;;;;5097093;28;20050;-69
2024/01/06 08:33:48;;;;;;;14.27;8.10;;;7.40;74.40;;;;;;5098524;28;20073;-69
2024/01/06 08:36:14;;;;;;;13.63;8.23;;;7.40;74.50;;;;;;5104256;28;20020;-69
2024/01/06 08:38:40;;;;;;;15.10;8.02;;;7.40;74.50;;;;;;5097793;28;20457;-69
2024/01/06 08:41:05;;;;;;;13.83;7.90;;;7.40;74.50;;;;;;5089519;28;20048;-69
2024/01/06 08:43:31;;;;;;;16.60;9.37;;;7.40;74.50;;;;;;5090854;28;20323;-69
2024/01/06 08:45:57;;;;;;;15.20;8.40;;;7.40;74.40;;;;;;5112161;28;20028;-69
2024/01/06 08:48:23;;;;;;;13.93;7.70;;;7.40;74.40;;;;;;5096490;28;20440;-69
2024/01/06 08:50:49;;;;;;;14.30;7.93;;;7.40;74.30;;;;;;5097545;28;20016;-69
2024/01/06 08:53:15;;;;;;;15.90;8.63;;;7.40;74.40;;;;;;5096592;28;20031;-69
2024/01/06 08:55:41;;;;;;;15.93;9.70;;;7.40;74.40;;;;;;5096765;28;20044;-69
2024/01/06 08:58:07;;;;;;;15.23;8.70;;;7.40;74.30;;;;;;5096140;28;20028;-69
2024/01/06 09:00:32;;;;;;;14.73;8.67;;;7.30;74.30;;;;;;5097341;28;20039;-69
2024/01/06 09:02:58;;;;;;;16.30;8.70;;;7.30;74.30;;;;;;5096600;28;20035;-69
2024/01/06 09:05:24;;;;;;;14.60;8.67;;;7.30;74.30;;;;;;5094780;28;20032;-70
2024/01/06 09:07:50;;;;;;;16.43;9.00;;;7.30;74.30;;;;;;5102362;28;20080;-69
2024/01/06 09:10:19;;;;;;;16.80;9.33;;;7.30;74.30;;;;;;5108144;28;20051;-70
2024/01/06 09:12:45;;;;;;;15.53;9.00;;;7.30;74.30;;;;;;5096261;28;20039;-69
2024/01/06 09:15:11;;;;;;;19.97;9.63;;;7.30;74.30;;;;;;5097185;28;20039;-69
2024/01/06 09:17:37;;;;;;;17.33;9.53;;;7.30;74.40;;;;;;5109886;28;20031;-69
2024/01/06 09:20:03;;;;;;;18.37;10.13;;;7.30;74.50;;;;;;5095992;28;20448;-69
2024/01/06 09:22:29;;;;;;;16.63;9.93;;;7.30;74.40;;;;;;5095126;28;20363;-69
2024/01/06 09:24:54;;;;;;;16.83;9.83;;;7.30;74.40;;;;;;5095622;28;20035;-68
2024/01/06 09:27:20;;;;;;;16.80;9.70;;;7.30;74.40;;;;;;5094154;28;20048;-69
2024/01/06 09:29:46;;;;;;;16.07;9.90;;;7.30;74.50;;;;;;5095775;28;20122;-68
2024/01/06 09:32:13;;;;;;;16.00;9.37;;;7.30;74.50;;;;;;5099884;28;20379;-68
2024/01/06 09:34:39;;;;;;;16.53;9.83;;;7.30;74.50;;;;;;5096770;28;20028;-70
2024/01/06 09:37:04;;;;;;;16.67;10.33;;;7.30;74.40;;;;;;5094252;28;20070;-69
2024/01/06 09:39:33;;;;;;;18.47;10.63;;;7.30;74.50;;;;;;5095140;28;20032;-71
2024/01/06 09:41:59;;;;;;;16.93;10.53;;;7.30;74.40;;;;;;5110409;28;20039;-72
2024/01/06 09:44:25;;;;;;;17.93;10.40;;;7.30;74.40;;;;;;5095270;28;20059;-70
2024/01/06 09:46:51;;;;;;;17.57;11.20;;;7.30;74.30;;;;;;5093874;28;20306;-69
2024/01/06 09:49:22;;;;;;;16.83;9.77;;;7.30;74.30;;;;;;5098480;28;20032;-70
2024/01/06 09:51:51;;;;;;;15.93;9.70;;;7.30;74.30;;;;;;5103201;28;20032;-70
2024/01/06 09:54:22;;;;;;;16.10;10.17;;;7.30;74.30;;;;;;5095023;28;20118;-69
2024/01/06 09:56:49;;;;;;;18.60;10.25;;;7.30;74.30;;;;;;5106666;28;20031;-70
2024/01/06 09:59:15;;;;;;;16.80;10.07;;;7.30;74.30;;;;;;5099271;28;20478;-69
2024/01/06 10:01:42;;;;;;;18.13;10.17;;;7.30;74.30;;;;;;5095289;28;20088;-70
2024/01/06 10:04:07;;;;;;;15.20;9.70;;;7.30;74.30;;;;;;5095941;28;20027;-70
2024/01/06 10:06:33;;;;;;;17.07;10.30;;;7.20;74.20;;;;;;5096172;28;20024;-70
2024/01/06 10:08:59;;;;;;;17.93;9.83;;;7.30;74.30;;;;;;5099367;28;20077;-69
2024/01/06 10:11:26;;;;;;;17.40;9.67;;;7.20;74.10;;;;;;5100762;28;20173;-70
2024/01/06 10:13:53;;;;;;;17.90;10.33;;;7.20;74.10;;;;;;5108863;28;20403;-70
2024/01/06 10:16:20;;;;;;;17.07;10.57;;;7.20;74.10;;;;;;5106222;28;20348;-70
2024/01/06 10:18:46;;;;;;;16.00;9.63;;;7.20;74.00;;;;;;5095736;28;20461;-70
2024/01/06 10:21:13;;;;;;;16.23;9.43;;;7.20;74.00;;;;;;5098459;28;20352;-70
2024/01/06 10:23:39;;;;;;;18.50;10.63;;;7.20;74.10;;;;;;5094521;28;20115;-70
2024/01/06 10:26:05;;;;;;;17.27;10.50;;;7.20;74.10;;;;;;5093643;28;20035;-70
2024/01/06 10:28:31;;;;;;;16.83;9.32;;;7.20;74.10;;;;;;5110990;28;20028;-69
2024/01/06 10:30:57;;;;;;;16.10;9.90;;;7.20;74.10;;;;;;5094726;28;20109;-72
2024/01/06 10:33:25;;;;;;;17.53;10.50;;;7.20;74.10;;;;;;5110190;28;20032;-71
2024/01/06 10:35:54;;;;;;;17.67;10.40;;;7.20;74.10;;;;;;5094702;28;20029;-70
2024/01/06 10:38:20;;;;;;;15.83;9.67;;;7.20;74.20;;;;;;5090553;28;20444;-71
2024/01/06 10:41:08;;;;;;;19.20;11.37;;;7.20;74.10;;;;;;5090704;28;20032;-70
2024/01/06 10:43:37;;;;;;;17.00;10.00;;;7.20;74.00;;;;;;5091337;28;20024;-70
2024/01/06 10:46:04;;;;;;;16.53;10.77;;;7.20;74.00;;;;;;5091205;28;20528;-71
2024/01/06 10:48:33;;;;;;;19.53;10.63;;;7.20;74.10;;;;;;5093948;28;20020;-70
2024/01/06 10:50:59;;;;;;;15.67;10.93;;;7.20;74.10;;;;;;5093131;28;20044;-69
2024/01/06 10:53:27;;;;;;;16.13;10.23;;;7.20;74.10;;;;;;5094477;28;20043;-70
2024/01/06 10:55:53;;;;;;;15.67;9.60;;;7.20;74.20;;;;;;5093525;28;20054;-70
2024/01/06 10:58:19;;;;;;;16.87;9.77;;;7.20;74.00;;;;;;5093331;28;20039;-70
2024/01/06 11:00:46;;;;;;;16.67;9.73;;;7.20;73.90;;;;;;5093964;28;20044;-70
2024/01/06 11:03:14;;;;;;;14.37;9.27;;;7.20;73.90;;;;;;5094362;28;20479;-71
2024/01/06 11:05:42;;;;;;;14.30;9.00;;;7.20;73.90;;;;;;5094144;28;20066;-71
2024/01/06 11:08:10;;;;;;;15.27;9.43;;;7.20;73.90;;;;;;5098586;28;20021;-71
2024/01/06 11:10:37;;;;;;;15.67;9.43;;;7.20;73.90;;;;;;5094734;28;20032;-72
2024/01/06 11:13:17;;;;;;;16.30;9.57;;;7.20;73.90;;;;;;5098731;28;20073;-70
2024/01/06 11:15:48;;;;;;;18.77;10.13;;;7.20;73.90;;;;;;5092755;28;20081;-71
2024/01/06 11:18:34;;;;;;;15.30;9.27;;;7.20;74.00;;;;;;5079722;28;20048;-70
2024/01/06 11:21:14;;;;;;;15.37;9.50;;;7.20;73.90;;;;;;5093176;28;20024;-72
2024/01/06 11:23:40;;;;;;;17.73;10.47;;;7.20;73.90;;;;;;5092447;28;20032;-73
2024/01/06 11:26:07;;;;;;;16.27;10.10;;;7.10;73.90;;;;;;5091575;28;20024;-69
2024/01/06 11:28:45;;;;;;;17.93;10.67;;;7.10;73.80;;;;;;5091296;28;20081;-70
2024/01/06 11:31:10;;;;;;;15.63;9.67;;;7.10;73.80;;;;;;5092451;28;20028;-71
2024/01/06 11:33:48;;;;;;;16.17;9.60;;;7.10;73.90;;;;;;5093597;28;20173;-71
2024/01/06 11:36:19;;;;;;;16.97;9.80;;;7.10;73.80;;;;;;5092760;28;20031;-71
2024/01/06 11:38:50;;;;;;;15.48;10.25;;;7.10;73.90;;;;;;5092067;28;20032;-70
2024/01/06 11:41:47;;;;;;;16.35;10.43;;;7.10;73.90;;;;;;5088273;28;20118;-68
2024/01/06 11:44:13;;;;;;;16.20;10.17;;;7.10;73.80;;;;;;5107474;28;20514;-70
2024/01/06 11:46:41;;;;;;;17.20;9.50;;;7.10;73.90;;;;;;5092540;28;20036;-70
2024/01/06 11:49:09;;;;;;;16.58;10.32;;;7.10;73.90;;;;;;5090698;28;20047;-70
2024/01/06 11:51:35;;;;;;;15.07;9.23;;;7.00;73.80;;;;;;5090172;28;20028;-70
2024/01/06 11:54:01;;;;;;;16.83;9.20;;;7.00;73.80;;;;;;5094213;28;20035;-70
2024/01/06 11:56:27;;;;;;;16.53;9.60;;;7.00;73.80;;;;;;5093365;28;20329;-70
2024/01/06 11:58:53;;;;;;;16.00;9.20;;;7.00;73.80;;;;;;5097534;28;20028;-70
2024/01/06 12:01:19;;;;;;;14.57;8.87;;;7.00;73.80;;;;;;5094432;28;20043;-70
2024/01/06 12:03:44;;;;;;;15.57;9.10;;;7.00;73.80;;;;;;5094807;28;20024;-70
2024/01/06 12:06:10;;;;;;;14.93;8.73;;;7.00;73.80;;;;;;5093723;28;20012;-70
2024/01/06 12:08:36;;;;;;;13.67;8.67;;;7.00;73.80;;;;;;5094351;28;20050;-70
2024/01/06 12:11:03;;;;;;;14.30;8.80;;;7.00;73.80;;;;;;5091706;28;20028;-70
2024/01/06 12:13:29;;;;;;;12.87;8.30;;;7.00;73.70;;;;;;5093935;28;20095;-70
2024/01/06 12:15:56;;;;;;;14.03;8.57;;;7.00;73.70;;;;;;5093168;28;20060;-70
2024/01/06 12:18:23;;;;;;;15.93;9.40;;;7.00;73.60;;;;;;5093320;28;20115;-70
2024/01/06 12:20:49;;;;;;;15.87;8.70;;;7.00;73.60;;;;;;5094180;28;20085;-70
2024/01/06 12:23:27;;;;;;;14.17;8.73;;;7.00;73.60;;;;;;5092484;28;20040;-70
2024/01/06 12:25:54;;;;;;;14.40;8.50;;;7.00;73.50;;;;;;5094662;28;20044;-70
2024/01/06 12:28:20;;;;;;;13.57;8.87;;;7.00;73.50;;;;;;5093034;28;20396;-70
2024/01/06 12:30:46;;;;;;;17.47;9.60;;;7.00;73.50;;;;;;5093971;28;20024;-70
2024/01/06 12:33:12;;;;;;;14.83;9.67;;;7.00;73.40;;;;;;5094412;28;20063;-70
2024/01/06 12:35:38;;;;;;;14.57;9.30;;;7.00;73.40;;;;;;5094155;28;20050;-70
2024/01/06 12:38:07;;;;;;;14.77;9.03;;;7.00;73.40;;;;;;5090972;28;20031;-70
2024/01/06 12:40:34;;;;;;;15.17;9.27;;;7.00;73.40;;;;;;5093864;28;20036;-71